Hovedside
METAR-TAF:

METAR-TAF

Lufthavner :

Larnaka internasjonale lufthavn

Larnaka, Kypros

breddegrad: 34-53N, lengdegrad: 033-38E, høyde over havet: 2 m

Gjeldene værobservasjon

Denne rapporten ble laget for 7 minutter siden, klokken 15:30 UTC
Vind 10 kt fra Sørvest
Temperatur 29°C
Luftfuktighet 70%
Trykk 1009 hPa
Sikt 10 km eller mer
Få skyer i en høyde av 3000 ft

METAR: LCLK 201530Z 22010KT 9999 FEW030 29/23 Q1009 NOSIG

Tid: 18:37 (15:37 UTC)

Varsel

Varsel gyldig fra 20. klokken 00 UTC til 20. klokken 24 UTC
Vind 5 kt fra Nordvest
Sikt 10 km eller mer
Få skyer i en høyde av 2000 ft
Blir
fra 20. klokken 09 UTC til 20. klokken 12 UTC
Vind 16 kt fra Sør-sørvest
Blir
fra 20. klokken 17 UTC til 20. klokken 20 UTC
Vind 5 kt fra Nordvest

TAF: LCLK 2000/2024 32005KT 9999 FEW020 BECMG 2009/2012 21016KT BECMG 2017/2020 31005KT

Værobservasjoner og værvarsel for over 4000 flyplasser (METAR- og TAF-rapporter).

Tilgjengelige stasjoner er representert av de røde og gule prikkene på kartet.

Hold musepekeren over prikken for å se navnet på stasjonen.

Klikk så for å se værobservasjoner og -varsler.

For å forandre kartet kan du klikke på den grønne knappen med svart kryss for å zoome inn, på den grønne knappen med strek for å zoome ut, eller på de grønne pilene for å se tilstøtende kart.


METAR-TAF: